Terminal Aerodrome Forecast
Issued by NWS Wilmington, OH

Current Version | Previous Version | Text Only | Print | Product List | Glossary Off
Versions: 1 2 3 4 5 6 7 8 9 10 11 12 13 14 15 16 17 18 19 20 21

604
FTUS41 KILN 221456 AAB
TAFCVG
TAF AMD
KCVG 221456Z 2215/2318 06012G20KT P6SM VCSH BKN025
     FM221700 05012G18KT P6SM VCSH OVC035
     FM221800 05012G20KT P6SM OVC040
     FM230300 05012KT P6SM OVC060
     FM231500 05012G18KT P6SM SCT200=

USA.gov is the U.S. government's official web portal to all federal, state and local government web resources and services.